sensor_id;sensor_type;location;lat;lon;timestamp;pressure;altitude;pressure_sealevel;temperature
62107;BMP280;48087;32.600;-97.100;2023-02-13T00:04:56;;;;17.22205
62107;BMP280;48087;32.600;-97.100;2023-02-13T00:09:59;;;;16.6665
62107;BMP280;48087;32.600;-97.100;2023-02-13T00:15:04;;;;16.166505
62107;BMP280;48087;32.600;-97.100;2023-02-13T00:20:07;;;;15.777619999999999
62107;BMP280;48087;32.600;-97.100;2023-02-13T00:25:11;;;;15.499844999999999
62107;BMP280;48087;32.600;-97.100;2023-02-13T00:30:15;;;;15.277625
62107;BMP280;48087;32.600;-97.100;2023-02-13T00:35:20;;;;15.277625
62107;BMP280;48087;32.600;-97.100;2023-02-13T00:40:23;;;;15.11096
62107;BMP280;48087;32.600;-97.100;2023-02-13T00:45:28;;;;14.833185000000002
62107;BMP280;48087;32.600;-97.100;2023-02-13T00:50:32;;;;14.666519999999998
62107;BMP280;48087;32.600;-97.100;2023-02-13T00:55:35;;;;14.555410000000002
62107;BMP280;48087;32.600;-97.100;2023-02-13T01:00:40;;;;14.499855
62107;BMP280;48087;32.600;-97.100;2023-02-13T01:05:43;;;;14.388744999999998
62107;BMP280;48087;32.600;-97.100;2023-02-13T01:10:48;;;;14.277635000000002
62107;BMP280;48087;32.600;-97.100;2023-02-13T01:15:52;;;;13.999860000000002
62107;BMP280;48087;32.600;-97.100;2023-02-13T01:20:57;;;;13.66653
62107;BMP280;48087;32.600;-97.100;2023-02-13T01:26:02;;;;13.444310000000002
62107;BMP280;48087;32.600;-97.100;2023-02-13T01:31:04;;;;13.388755
62107;BMP280;48087;32.600;-97.100;2023-02-13T01:36:08;;;;13.277645
62107;BMP280;48087;32.600;-97.100;2023-02-13T01:41:12;;;;13.166535000000001
62107;BMP280;48087;32.600;-97.100;2023-02-13T01:46:18;;;;13.222089999999998
62107;BMP280;48087;32.600;-97.100;2023-02-13T01:51:21;;;;13.11098
62107;BMP280;48087;32.600;-97.100;2023-02-13T01:56:24;;;;13.11098
62107;BMP280;48087;32.600;-97.100;2023-02-13T02:01:28;;;;12.99987
62107;BMP280;48087;32.600;-97.100;2023-02-13T02:06:31;;;;12.99987
62107;BMP280;48087;32.600;-97.100;2023-02-13T02:11:38;;;;12.944314999999998
62107;BMP280;48087;32.600;-97.100;2023-02-13T02:16:40;;;;12.666539999999998
62107;BMP280;48087;32.600;-97.100;2023-02-13T02:21:46;;;;12.499875
62107;BMP280;48087;32.600;-97.100;2023-02-13T02:26:51;;;;12.333210000000001
62107;BMP280;48087;32.600;-97.100;2023-02-13T02:31:58;;;;12.2221
62107;BMP280;48087;32.600;-97.100;2023-02-13T02:37:00;;;;11.944325
62107;BMP280;48087;32.600;-97.100;2023-02-13T02:42:03;;;;11.777660000000001
62107;BMP280;48087;32.600;-97.100;2023-02-13T02:47:07;;;;11.555439999999999
62107;BMP280;48087;32.600;-97.100;2023-02-13T02:52:10;;;;11.388774999999999
62107;BMP280;48087;32.600;-97.100;2023-02-13T02:57:12;;;;11.333219999999999
62107;BMP280;48087;32.600;-97.100;2023-02-13T03:02:15;;;;11.22211
62107;BMP280;48087;32.600;-97.100;2023-02-13T03:07:19;;;;11.22211
62107;BMP280;48087;32.600;-97.100;2023-02-13T03:12:25;;;;10.999889999999999
62107;BMP280;48087;32.600;-97.100;2023-02-13T03:17:27;;;;10.833225
62107;BMP280;48087;32.600;-97.100;2023-02-13T03:22:35;;;;10.777669999999999
62107;BMP280;48087;32.600;-97.100;2023-02-13T03:27:37;;;;10.66656
62107;BMP280;48087;32.600;-97.100;2023-02-13T03:32:58;;;;10.444339999999999
62107;BMP280;48087;32.600;-97.100;2023-02-13T03:37:59;;;;10.33323
62107;BMP280;48087;32.600;-97.100;2023-02-13T03:43:05;;;;10.277675
62107;BMP280;48087;32.600;-97.100;2023-02-13T03:48:07;;;;10.222119999999999
62107;BMP280;48087;32.600;-97.100;2023-02-13T03:53:11;;;;10.277675
62107;BMP280;48087;32.600;-97.100;2023-02-13T03:58:17;;;;10.166564999999999
62107;BMP280;48087;32.600;-97.100;2023-02-13T04:03:21;;;;10.277675
62107;BMP280;48087;32.600;-97.100;2023-02-13T04:08:22;;;;10.166564999999999
62107;BMP280;48087;32.600;-97.100;2023-02-13T04:13:28;;;;10.166564999999999
62107;BMP280;48087;32.600;-97.100;2023-02-13T04:18:32;;;;10.166564999999999
62107;BMP280;48087;32.600;-97.100;2023-02-13T04:23:35;;;;10.222119999999999
62107;BMP280;48087;32.600;-97.100;2023-02-13T04:28:39;;;;10.222119999999999
62107;BMP280;48087;32.600;-97.100;2023-02-13T04:33:43;;;;10.222119999999999
62107;BMP280;48087;32.600;-97.100;2023-02-13T04:38:47;;;;10.222119999999999
62107;BMP280;48087;32.600;-97.100;2023-02-13T04:43:50;;;;10.111010000000002
62107;BMP280;48087;32.600;-97.100;2023-02-13T04:48:55;;;;10.055455
62107;BMP280;48087;32.600;-97.100;2023-02-13T04:53:59;;;;9.833235000000002
62107;BMP280;48087;32.600;-97.100;2023-02-13T04:59:02;;;;9.833235000000002
62107;BMP280;48087;32.600;-97.100;2023-02-13T05:04:07;;;;9.77768
62107;BMP280;48087;32.600;-97.100;2023-02-13T05:09:11;;;;9.555460000000002
62107;BMP280;48087;32.600;-97.100;2023-02-13T05:14:15;;;;9.44435
62107;BMP280;48087;32.600;-97.100;2023-02-13T05:19:19;;;;9.333239999999998
62107;BMP280;48087;32.600;-97.100;2023-02-13T05:24:23;;;;9.22213
62107;BMP280;48087;32.600;-97.100;2023-02-13T05:29:27;;;;9.055464999999998
62107;BMP280;48087;32.600;-97.100;2023-02-13T05:34:30;;;;8.944355
62107;BMP280;48087;32.600;-97.100;2023-02-13T05:39:35;;;;8.777689999999998
62107;BMP280;48087;32.600;-97.100;2023-02-13T05:44:38;;;;8.722135000000002
62107;BMP280;48087;32.600;-97.100;2023-02-13T05:49:43;;;;8.722135000000002
62107;BMP280;48087;32.600;-97.100;2023-02-13T05:54:47;;;;8.55547
62107;BMP280;48087;32.600;-97.100;2023-02-13T05:59:51;;;;8.55547
62107;BMP280;48087;32.600;-97.100;2023-02-13T06:04:55;;;;8.388805000000001
62107;BMP280;48087;32.600;-97.100;2023-02-13T06:09:59;;;;8.444360000000001
62107;BMP280;48087;32.600;-97.100;2023-02-13T06:15:02;;;;8.499914999999998
62107;BMP280;48087;32.600;-97.100;2023-02-13T06:20:08;;;;8.444360000000001
62107;BMP280;48087;32.600;-97.100;2023-02-13T06:25:11;;;;8.444360000000001
62107;BMP280;48087;32.600;-97.100;2023-02-13T06:30:15;;;;8.499914999999998
62107;BMP280;48087;32.600;-97.100;2023-02-13T06:35:19;;;;8.66658
62107;BMP280;48087;32.600;-97.100;2023-02-13T06:40:23;;;;8.722135000000002
62107;BMP280;48087;32.600;-97.100;2023-02-13T06:45:27;;;;8.722135000000002
62107;BMP280;48087;32.600;-97.100;2023-02-13T06:50:31;;;;8.722135000000002
62107;BMP280;48087;32.600;-97.100;2023-02-13T06:55:35;;;;8.66658
62107;BMP280;48087;32.600;-97.100;2023-02-13T07:00:38;;;;8.499914999999998
62107;BMP280;48087;32.600;-97.100;2023-02-13T07:05:43;;;;8.55547
62107;BMP280;48087;32.600;-97.100;2023-02-13T07:10:45;;;;8.388805000000001
62107;BMP280;48087;32.600;-97.100;2023-02-13T07:15:51;;;;8.055475
62107;BMP280;48087;32.600;-97.100;2023-02-13T07:20:54;;;;7.611035000000001
62107;BMP280;48087;32.600;-97.100;2023-02-13T07:25:59;;;;7.22215
62107;BMP280;48087;32.600;-97.100;2023-02-13T07:31:02;;;;7.055485000000002
62107;BMP280;48087;32.600;-97.100;2023-02-13T07:36:07;;;;6.777710000000002
62107;BMP280;48087;32.600;-97.100;2023-02-13T07:41:09;;;;6.333269999999999
62107;BMP280;48087;32.600;-97.100;2023-02-13T07:46:15;;;;6.055494999999999
62107;BMP280;48087;32.600;-97.100;2023-02-13T07:51:18;;;;5.8888300000000005
62107;BMP280;48087;32.600;-97.100;2023-02-13T07:56:22;;;;5.999939999999999
62107;BMP280;48087;32.600;-97.100;2023-02-13T08:01:25;;;;5.8332749999999995
62107;BMP280;48087;32.600;-97.100;2023-02-13T08:06:30;;;;6.166605000000001
62107;BMP280;48087;32.600;-97.100;2023-02-13T08:11:33;;;;5.8888300000000005
62107;BMP280;48087;32.600;-97.100;2023-02-13T08:16:39;;;;5.7777199999999995
62107;BMP280;48087;32.600;-97.100;2023-02-13T08:21:42;;;;5.5555
62107;BMP280;48087;32.600;-97.100;2023-02-13T08:26:46;;;;5.33328
62107;BMP280;48087;32.600;-97.100;2023-02-13T08:31:49;;;;4.99995
62107;BMP280;48087;32.600;-97.100;2023-02-13T08:36:55;;;;4.666619999999999
62107;BMP280;48087;32.600;-97.100;2023-02-13T08:41:57;;;;4.611064999999998
62107;BMP280;48087;32.600;-97.100;2023-02-13T08:47:02;;;;4.4444
62107;BMP280;48087;32.600;-97.100;2023-02-13T08:52:05;;;;4.722175
62107;BMP280;48087;32.600;-97.100;2023-02-13T08:57:10;;;;4.611064999999998
62107;BMP280;48087;32.600;-97.100;2023-02-13T09:02:13;;;;4.722175
62107;BMP280;48087;32.600;-97.100;2023-02-13T09:07:19;;;;4.722175
62107;BMP280;48087;32.600;-97.100;2023-02-13T09:12:21;;;;4.388844999999999
62107;BMP280;48087;32.600;-97.100;2023-02-13T09:17:26;;;;4.833285000000002
62107;BMP280;48087;32.600;-97.100;2023-02-13T09:22:29;;;;4.722175
62107;BMP280;48087;32.600;-97.100;2023-02-13T09:27:35;;;;4.777730000000001
62107;BMP280;48087;32.600;-97.100;2023-02-13T09:32:37;;;;4.611064999999998
62107;BMP280;48087;32.600;-97.100;2023-02-13T09:37:42;;;;4.222180000000001
62107;BMP280;48087;32.600;-97.100;2023-02-13T09:42:46;;;;4.777730000000001
62107;BMP280;48087;32.600;-97.100;2023-02-13T09:47:49;;;;4.499955000000001
62107;BMP280;48087;32.600;-97.100;2023-02-13T09:52:54;;;;4.722175
62107;BMP280;48087;32.600;-97.100;2023-02-13T09:57:59;;;;4.777730000000001
62107;BMP280;48087;32.600;-97.100;2023-02-13T10:03:19;;;;4.99995
62107;BMP280;48087;32.600;-97.100;2023-02-13T10:08:08;;;;5.055505000000001
62107;BMP280;48087;32.600;-97.100;2023-02-13T10:13:15;;;;5.33328
62107;BMP280;48087;32.600;-97.100;2023-02-13T10:18:14;;;;5.499944999999999
62107;BMP280;48087;32.600;-97.100;2023-02-13T10:23:21;;;;5.499944999999999
62107;BMP280;48087;32.600;-97.100;2023-02-13T10:28:27;;;;5.4443899999999985
62107;BMP280;48087;32.600;-97.100;2023-02-13T10:33:27;;;;5.277725
62107;BMP280;48087;32.600;-97.100;2023-02-13T10:38:31;;;;5.111060000000001
62107;BMP280;48087;32.600;-97.100;2023-02-13T10:43:37;;;;4.722175
62107;BMP280;48087;32.600;-97.100;2023-02-13T10:48:42;;;;4.722175
62107;BMP280;48087;32.600;-97.100;2023-02-13T10:53:46;;;;4.944394999999999
62107;BMP280;48087;32.600;-97.100;2023-02-13T10:58:49;;;;4.888839999999998
62107;BMP280;48087;32.600;-97.100;2023-02-13T11:03:59;;;;4.777730000000001
62107;BMP280;48087;32.600;-97.100;2023-02-13T11:08:54;;;;4.833285000000002
62107;BMP280;48087;32.600;-97.100;2023-02-13T11:14:14;;;;4.777730000000001
62107;BMP280;48087;32.600;-97.100;2023-02-13T11:19:01;;;;4.722175
62107;BMP280;48087;32.600;-97.100;2023-02-13T11:24:07;;;;4.666619999999999
62107;BMP280;48087;32.600;-97.100;2023-02-13T11:29:15;;;;4.555510000000002
62107;BMP280;48087;32.600;-97.100;2023-02-13T11:34:21;;;;4.777730000000001
62107;BMP280;48087;32.600;-97.100;2023-02-13T11:39:18;;;;4.99995
62107;BMP280;48087;32.600;-97.100;2023-02-13T11:44:23;;;;4.777730000000001
62107;BMP280;48087;32.600;-97.100;2023-02-13T11:49:26;;;;4.777730000000001
62107;BMP280;48087;32.600;-97.100;2023-02-13T11:54:30;;;;4.833285000000002
62107;BMP280;48087;32.600;-97.100;2023-02-13T11:59:38;;;;4.833285000000002
62107;BMP280;48087;32.600;-97.100;2023-02-13T12:04:38;;;;4.833285000000002
62107;BMP280;48087;32.600;-97.100;2023-02-13T12:09:41;;;;4.722175
62107;BMP280;48087;32.600;-97.100;2023-02-13T12:14:46;;;;4.722175
62107;BMP280;48087;32.600;-97.100;2023-02-13T12:19:49;;;;4.888839999999998
62107;BMP280;48087;32.600;-97.100;2023-02-13T12:25:00;;;;5.166614999999998
62107;BMP280;48087;32.600;-97.100;2023-02-13T12:30:06;;;;5.388835000000001
62107;BMP280;48087;32.600;-97.100;2023-02-13T12:35:10;;;;5.499944999999999
62107;BMP280;48087;32.600;-97.100;2023-02-13T12:40:13;;;;5.4443899999999985
62107;BMP280;48087;32.600;-97.100;2023-02-13T12:45:13;;;;5.388835000000001
62107;BMP280;48087;32.600;-97.100;2023-02-13T12:50:32;;;;5.277725
62107;BMP280;48087;32.600;-97.100;2023-02-13T12:55:27;;;;5.222169999999999
62107;BMP280;48087;32.600;-97.100;2023-02-13T13:00:25;;;;5.166614999999998
62107;BMP280;48087;32.600;-97.100;2023-02-13T13:05:29;;;;5.277725
62107;BMP280;48087;32.600;-97.100;2023-02-13T13:10:34;;;;5.277725
62107;BMP280;48087;32.600;-97.100;2023-02-13T13:15:34;;;;5.33328
62107;BMP280;48087;32.600;-97.100;2023-02-13T13:20:42;;;;5.33328
62107;BMP280;48087;32.600;-97.100;2023-02-13T13:25:44;;;;5.4443899999999985
62107;BMP280;48087;32.600;-97.100;2023-02-13T13:30:45;;;;5.499944999999999
62107;BMP280;48087;32.600;-97.100;2023-02-13T13:35:53;;;;5.5555
62107;BMP280;48087;32.600;-97.100;2023-02-13T13:40:55;;;;5.666610000000001
62107;BMP280;48087;32.600;-97.100;2023-02-13T13:46:01;;;;5.944385000000001
62107;BMP280;48087;32.600;-97.100;2023-02-13T13:51:01;;;;6.166605000000001
62107;BMP280;48087;32.600;-97.100;2023-02-13T13:56:06;;;;6.2221600000000015
62107;BMP280;48087;32.600;-97.100;2023-02-13T14:01:26;;;;6.499935000000002
62107;BMP280;48087;32.600;-97.100;2023-02-13T14:06:15;;;;6.777710000000002
62107;BMP280;48087;32.600;-97.100;2023-02-13T14:11:25;;;;7.277705000000001
62107;BMP280;48087;32.600;-97.100;2023-02-13T14:16:37;;;;7.55548
62107;BMP280;48087;32.600;-97.100;2023-02-13T14:21:25;;;;8.055475
62107;BMP280;48087;32.600;-97.100;2023-02-13T14:26:32;;;;8.388805000000001
62107;BMP280;48087;32.600;-97.100;2023-02-13T14:31:34;;;;8.33325
62107;BMP280;48087;32.600;-97.100;2023-02-13T14:36:38;;;;8.833245
62107;BMP280;48087;32.600;-97.100;2023-02-13T14:41:43;;;;8.8888
62107;BMP280;48087;32.600;-97.100;2023-02-13T14:46:46;;;;9.22213
62107;BMP280;48087;32.600;-97.100;2023-02-13T14:51:50;;;;9.333239999999998
62107;BMP280;48087;32.600;-97.100;2023-02-13T14:56:54;;;;9.611014999999998
62107;BMP280;48087;32.600;-97.100;2023-02-13T15:02:15;;;;10.111010000000002
62107;BMP280;48087;32.600;-97.100;2023-02-13T15:07:18;;;;10.66656
62107;BMP280;48087;32.600;-97.100;2023-02-13T15:12:25;;;;10.999889999999999
62107;BMP280;48087;32.600;-97.100;2023-02-13T15:17:26;;;;11.333219999999999
62107;BMP280;48087;32.600;-97.100;2023-02-13T15:22:30;;;;11.499885
62107;BMP280;48087;32.600;-97.100;2023-02-13T15:27:35;;;;11.777660000000001
62107;BMP280;48087;32.600;-97.100;2023-02-13T15:32:37;;;;12.2221
62107;BMP280;48087;32.600;-97.100;2023-02-13T15:37:41;;;;12.833205000000001
62107;BMP280;48087;32.600;-97.100;2023-02-13T15:42:44;;;;13.277645
62107;BMP280;48087;32.600;-97.100;2023-02-13T15:47:48;;;;13.499864999999998
62107;BMP280;48087;32.600;-97.100;2023-02-13T15:52:53;;;;13.610975
62107;BMP280;48087;32.600;-97.100;2023-02-13T15:57:57;;;;13.833194999999998
62107;BMP280;48087;32.600;-97.100;2023-02-13T16:03:02;;;;13.999860000000002
62107;BMP280;48087;32.600;-97.100;2023-02-13T16:08:22;;;;14.166525
62107;BMP280;48087;32.600;-97.100;2023-02-13T16:13:14;;;;14.77763
62107;BMP280;48087;32.600;-97.100;2023-02-13T16:18:16;;;;14.99985
62107;BMP280;48087;32.600;-97.100;2023-02-13T16:23:16;;;;14.99985
62107;BMP280;48087;32.600;-97.100;2023-02-13T16:28:21;;;;15.277625
62107;BMP280;48087;32.600;-97.100;2023-02-13T16:33:27;;;;14.99985
62107;BMP280;48087;32.600;-97.100;2023-02-13T16:38:30;;;;15.11096
62107;BMP280;48087;32.600;-97.100;2023-02-13T16:43:36;;;;15.499844999999999
62107;BMP280;48087;32.600;-97.100;2023-02-13T16:48:37;;;;15.722064999999999
62107;BMP280;48087;32.600;-97.100;2023-02-13T16:53:40;;;;15.777619999999999
62107;BMP280;48087;32.600;-97.100;2023-02-13T16:58:45;;;;15.944285
62107;BMP280;48087;32.600;-97.100;2023-02-13T17:03:49;;;;15.777619999999999
62107;BMP280;48087;32.600;-97.100;2023-02-13T17:08:52;;;;16.277614999999997
62107;BMP280;48087;32.600;-97.100;2023-02-13T17:13:56;;;;16.499835
62107;BMP280;48087;32.600;-97.100;2023-02-13T17:19:01;;;;16.722055
62107;BMP280;48087;32.600;-97.100;2023-02-13T17:24:04;;;;16.944275
62107;BMP280;48087;32.600;-97.100;2023-02-13T17:29:09;;;;16.722055
62107;BMP280;48087;32.600;-97.100;2023-02-13T17:34:12;;;;16.99983
62107;BMP280;48087;32.600;-97.100;2023-02-13T17:39:17;;;;17.055385
62107;BMP280;48087;32.600;-97.100;2023-02-13T17:44:20;;;;17.166494999999998
62107;BMP280;48087;32.600;-97.100;2023-02-13T17:49:24;;;;17.610935
62107;BMP280;48087;32.600;-97.100;2023-02-13T17:54:28;;;;17.833154999999998
62107;BMP280;48087;32.600;-97.100;2023-02-13T17:59:33;;;;17.999820000000003
62107;BMP280;48087;32.600;-97.100;2023-02-13T18:04:37;;;;17.7776
62107;BMP280;48087;32.600;-97.100;2023-02-13T18:09:40;;;;17.44427
62107;BMP280;48087;32.600;-97.100;2023-02-13T18:14:45;;;;17.88871
62107;BMP280;48087;32.600;-97.100;2023-02-13T18:19:49;;;;18.055374999999998
62107;BMP280;48087;32.600;-97.100;2023-02-13T18:24:53;;;;18.166485
62107;BMP280;48087;32.600;-97.100;2023-02-13T18:29:57;;;;18.22204
62107;BMP280;48087;32.600;-97.100;2023-02-13T18:35:00;;;;18.277595
62107;BMP280;48087;32.600;-97.100;2023-02-13T18:40:05;;;;18.22204
62107;BMP280;48087;32.600;-97.100;2023-02-13T18:45:08;;;;18.44426
62107;BMP280;48087;32.600;-97.100;2023-02-13T18:50:13;;;;18.499814999999998
62107;BMP280;48087;32.600;-97.100;2023-02-13T18:55:16;;;;18.722035
62107;BMP280;48087;32.600;-97.100;2023-02-13T19:00:20;;;;18.777589999999996
62107;BMP280;48087;32.600;-97.100;2023-02-13T19:05:24;;;;18.666479999999996
62107;BMP280;48087;32.600;-97.100;2023-02-13T19:10:28;;;;18.722035
62107;BMP280;48087;32.600;-97.100;2023-02-13T19:15:34;;;;18.388704999999998
62107;BMP280;48087;32.600;-97.100;2023-02-13T19:20:36;;;;18.555370000000003
62107;BMP280;48087;32.600;-97.100;2023-02-13T19:25:41;;;;18.555370000000003
62107;BMP280;48087;32.600;-97.100;2023-02-13T19:30:45;;;;18.722035
62107;BMP280;48087;32.600;-97.100;2023-02-13T19:35:55;;;;19.055365
62107;BMP280;48087;32.600;-97.100;2023-02-13T19:40:52;;;;19.610915
62107;BMP280;48087;32.600;-97.100;2023-02-13T19:45:56;;;;19.55536
62107;BMP280;48087;32.600;-97.100;2023-02-13T19:51:03;;;;19.388695000000002
62107;BMP280;48087;32.600;-97.100;2023-02-13T19:56:05;;;;19.44425
62107;BMP280;48087;32.600;-97.100;2023-02-13T20:01:09;;;;18.8887
62107;BMP280;48087;32.600;-97.100;2023-02-13T20:06:13;;;;19.499804999999995
62107;BMP280;48087;32.600;-97.100;2023-02-13T20:11:18;;;;19.44425
62107;BMP280;48087;32.600;-97.100;2023-02-13T20:16:21;;;;19.44425
62107;BMP280;48087;32.600;-97.100;2023-02-13T20:21:24;;;;19.666470000000004
62107;BMP280;48087;32.600;-97.100;2023-02-13T20:26:28;;;;19.55536
62107;BMP280;48087;32.600;-97.100;2023-02-13T20:31:33;;;;19.44425
62107;BMP280;48087;32.600;-97.100;2023-02-13T20:36:36;;;;19.277585000000002
62107;BMP280;48087;32.600;-97.100;2023-02-13T20:41:39;;;;18.99981
62107;BMP280;48087;32.600;-97.100;2023-02-13T20:46:43;;;;18.666479999999996
62107;BMP280;48087;32.600;-97.100;2023-02-13T20:51:48;;;;18.777589999999996
62107;BMP280;48087;32.600;-97.100;2023-02-13T20:56:52;;;;18.555370000000003
62107;BMP280;48087;32.600;-97.100;2023-02-13T21:01:56;;;;18.666479999999996
62107;BMP280;48087;32.600;-97.100;2023-02-13T21:07:00;;;;18.722035
62107;BMP280;48087;32.600;-97.100;2023-02-13T21:12:03;;;;18.610924999999998
62107;BMP280;48087;32.600;-97.100;2023-02-13T21:17:08;;;;18.666479999999996
62107;BMP280;48087;32.600;-97.100;2023-02-13T21:22:11;;;;18.33315
62107;BMP280;48087;32.600;-97.100;2023-02-13T21:27:16;;;;17.944264999999998
62107;BMP280;48087;32.600;-97.100;2023-02-13T21:32:20;;;;17.722044999999998
62107;BMP280;48087;32.600;-97.100;2023-02-13T21:37:24;;;;17.499825
62107;BMP280;48087;32.600;-97.100;2023-02-13T21:42:28;;;;17.33316
62107;BMP280;48087;32.600;-97.100;2023-02-13T21:47:32;;;;17.277605
62107;BMP280;48087;32.600;-97.100;2023-02-13T21:52:36;;;;17.22205
62107;BMP280;48087;32.600;-97.100;2023-02-13T21:57:40;;;;17.11094
62107;BMP280;48087;32.600;-97.100;2023-02-13T22:02:44;;;;17.166494999999998
62107;BMP280;48087;32.600;-97.100;2023-02-13T22:07:48;;;;17.22205
62107;BMP280;48087;32.600;-97.100;2023-02-13T22:13:08;;;;17.33316
62107;BMP280;48087;32.600;-97.100;2023-02-13T22:18:12;;;;17.44427
62107;BMP280;48087;32.600;-97.100;2023-02-13T22:23:16;;;;17.499825
62107;BMP280;48087;32.600;-97.100;2023-02-13T22:28:20;;;;17.388714999999998
62107;BMP280;48087;32.600;-97.100;2023-02-13T22:33:24;;;;17.388714999999998
62107;BMP280;48087;32.600;-97.100;2023-02-13T22:38:30;;;;17.388714999999998
62107;BMP280;48087;32.600;-97.100;2023-02-13T22:43:32;;;;17.277605
62107;BMP280;48087;32.600;-97.100;2023-02-13T22:48:35;;;;17.11094
62107;BMP280;48087;32.600;-97.100;2023-02-13T22:53:40;;;;16.99983
62107;BMP280;48087;32.600;-97.100;2023-02-13T22:58:44;;;;16.88872
62107;BMP280;48087;32.600;-97.100;2023-02-13T23:03:48;;;;16.777610000000003
62107;BMP280;48087;32.600;-97.100;2023-02-13T23:08:52;;;;16.722055
62107;BMP280;48087;32.600;-97.100;2023-02-13T23:13:55;;;;16.722055
62107;BMP280;48087;32.600;-97.100;2023-02-13T23:19:00;;;;16.610944999999997
62107;BMP280;48087;32.600;-97.100;2023-02-13T23:24:04;;;;16.55539
62107;BMP280;48087;32.600;-97.100;2023-02-13T23:29:08;;;;16.44428
62107;BMP280;48087;32.600;-97.100;2023-02-13T23:34:12;;;;16.44428
62107;BMP280;48087;32.600;-97.100;2023-02-13T23:39:15;;;;16.33317
62107;BMP280;48087;32.600;-97.100;2023-02-13T23:44:19;;;;16.277614999999997
62107;BMP280;48087;32.600;-97.100;2023-02-13T23:49:23;;;;16.222060000000003
62107;BMP280;48087;32.600;-97.100;2023-02-13T23:54:27;;;;16.166505
62107;BMP280;48087;32.600;-97.100;2023-02-13T23:59:31;;;;16.166505
